sensor_id;sensor_type;location;lat;lon;timestamp;pressure;altitude;pressure_sealevel;temperature;humidity
30873;BME280;17579;42.690;2.586;2023-01-30T00:02:00;98035.31;;;4.09;50.47
30873;BME280;17579;42.690;2.586;2023-01-30T00:04:26;98037.09;;;4.08;50.41
30873;BME280;17579;42.690;2.586;2023-01-30T00:06:51;98043.06;;;4.10;50.45
30873;BME280;17579;42.690;2.586;2023-01-30T00:09:17;98035.31;;;4.09;50.15
30873;BME280;17579;42.690;2.586;2023-01-30T00:11:42;98038.09;;;4.06;50.56
30873;BME280;17579;42.690;2.586;2023-01-30T00:14:08;98031.06;;;4.06;50.56
30873;BME280;17579;42.690;2.586;2023-01-30T00:16:34;98032.94;;;4.04;50.78
30873;BME280;17579;42.690;2.586;2023-01-30T00:18:59;98031.94;;;4.07;50.72
30873;BME280;17579;42.690;2.586;2023-01-30T00:21:25;98029.22;;;4.08;50.64
30873;BME280;17579;42.690;2.586;2023-01-30T00:23:51;98027.63;;;4.06;50.73
30873;BME280;17579;42.690;2.586;2023-01-30T00:26:16;98025.75;;;4.08;50.56
30873;BME280;17579;42.690;2.586;2023-01-30T00:28:42;98017.91;;;4.08;50.59
30873;BME280;17579;42.690;2.586;2023-01-30T00:31:08;98017.16;;;4.06;50.54
30873;BME280;17579;42.690;2.586;2023-01-30T00:33:35;98019.09;;;4.02;50.65
30873;BME280;17579;42.690;2.586;2023-01-30T00:36:01;98020.25;;;3.96;50.77
30873;BME280;17579;42.690;2.586;2023-01-30T00:38:27;98016.72;;;3.97;51.01
30873;BME280;17579;42.690;2.586;2023-01-30T00:40:52;98015.03;;;3.96;50.64
30873;BME280;17579;42.690;2.586;2023-01-30T00:43:19;98017.72;;;3.95;50.66
30873;BME280;17579;42.690;2.586;2023-01-30T00:45:58;98019.44;;;3.96;50.77
30873;BME280;17579;42.690;2.586;2023-01-30T00:48:36;98008.88;;;3.97;50.70
30873;BME280;17579;42.690;2.586;2023-01-30T00:51:02;98008.13;;;3.95;50.57
30873;BME280;17579;42.690;2.586;2023-01-30T00:53:28;98008.31;;;3.92;50.64
30873;BME280;17579;42.690;2.586;2023-01-30T00:55:54;98006.59;;;3.91;50.61
30873;BME280;17579;42.690;2.586;2023-01-30T00:58:21;98003.16;;;3.91;50.71
30873;BME280;17579;42.690;2.586;2023-01-30T01:00:47;97999.50;;;3.93;50.59
30873;BME280;17579;42.690;2.586;2023-01-30T01:03:13;98006.53;;;3.93;50.74
30873;BME280;17579;42.690;2.586;2023-01-30T01:05:39;98005.69;;;3.92;50.44
30873;BME280;17579;42.690;2.586;2023-01-30T01:08:05;98009.97;;;3.93;50.54
30873;BME280;17579;42.690;2.586;2023-01-30T01:10:31;98010.06;;;3.92;50.46
30873;BME280;17579;42.690;2.586;2023-01-30T01:12:57;98010.06;;;3.92;50.41
30873;BME280;17579;42.690;2.586;2023-01-30T01:15:23;98007.44;;;3.92;50.54
30873;BME280;17579;42.690;2.586;2023-01-30T01:17:50;98014.47;;;3.91;50.47
30873;BME280;17579;42.690;2.586;2023-01-30T01:20:17;98012.94;;;3.87;50.25
30873;BME280;17579;42.690;2.586;2023-01-30T01:22:43;98011.22;;;3.86;50.23
30873;BME280;17579;42.690;2.586;2023-01-30T01:25:09;98022.75;;;3.84;50.33
30873;BME280;17579;42.690;2.586;2023-01-30T01:27:36;98015.03;;;3.80;50.28
30873;BME280;17579;42.690;2.586;2023-01-30T01:30:03;98018.69;;;3.78;50.32
30873;BME280;17579;42.690;2.586;2023-01-30T01:32:29;98013.50;;;3.76;50.41
30873;BME280;17579;42.690;2.586;2023-01-30T01:34:55;98012.84;;;3.73;50.50
30873;BME280;17579;42.690;2.586;2023-01-30T01:37:20;98005.81;;;3.73;50.24
30873;BME280;17579;42.690;2.586;2023-01-30T01:39:46;98012.94;;;3.71;50.11
30873;BME280;17579;42.690;2.586;2023-01-30T01:42:25;98007.88;;;3.68;50.39
30873;BME280;17579;42.690;2.586;2023-01-30T01:45:14;98008.34;;;3.59;50.26
30873;BME280;17579;42.690;2.586;2023-01-30T01:50:28;98003.91;;;3.61;50.19
30873;BME280;17579;42.690;2.586;2023-01-30T01:52:58;98004.16;;;3.56;50.48
30873;BME280;17579;42.690;2.586;2023-01-30T01:55:26;98005.06;;;3.55;50.27
30873;BME280;17579;42.690;2.586;2023-01-30T01:58:01;98008.78;;;3.51;50.00
30873;BME280;17579;42.690;2.586;2023-01-30T02:00:29;98014.66;;;3.55;50.09
30873;BME280;17579;42.690;2.586;2023-01-30T02:03:10;98011.31;;;3.53;50.20
30873;BME280;17579;42.690;2.586;2023-01-30T02:05:41;98007.16;;;3.49;50.03
30873;BME280;17579;42.690;2.586;2023-01-30T02:08:10;98010.03;;;3.44;50.05
30873;BME280;17579;42.690;2.586;2023-01-30T02:10:53;98008.66;;;3.37;50.04
30873;BME280;17579;42.690;2.586;2023-01-30T02:13:21;98014.66;;;3.39;49.95
30873;BME280;17579;42.690;2.586;2023-01-30T02:15:47;98017.44;;;3.36;49.88
30873;BME280;17579;42.690;2.586;2023-01-30T02:18:14;98014.22;;;3.31;49.99
30873;BME280;17579;42.690;2.586;2023-01-30T02:21:05;98025.94;;;3.23;50.20
30873;BME280;17579;42.690;2.586;2023-01-30T02:23:56;98028.38;;;3.26;50.32
30873;BME280;17579;42.690;2.586;2023-01-30T02:32:30;98016.06;;;3.28;50.25
30873;BME280;17579;42.690;2.586;2023-01-30T02:38:15;98022.22;;;3.27;50.02
30873;BME280;17579;42.690;2.586;2023-01-30T02:41:13;98014.69;;;3.21;50.18
30873;BME280;17579;42.690;2.586;2023-01-30T02:43:58;98016.47;;;3.21;50.03
30873;BME280;17579;42.690;2.586;2023-01-30T02:46:33;98009.72;;;3.17;49.94
30873;BME280;17579;42.690;2.586;2023-01-30T02:49:16;98009.09;;;3.11;50.26
30873;BME280;17579;42.690;2.586;2023-01-30T02:51:45;98006.31;;;3.15;50.58
30873;BME280;17579;42.690;2.586;2023-01-30T02:54:12;98013.16;;;3.17;50.61
30873;BME280;17579;42.690;2.586;2023-01-30T02:56:48;98006.28;;;3.16;50.50
30873;BME280;17579;42.690;2.586;2023-01-30T02:59:22;98006.19;;;3.18;50.36
30873;BME280;17579;42.690;2.586;2023-01-30T03:10:59;98009.56;;;3.20;50.43
30873;BME280;17579;42.690;2.586;2023-01-30T03:13:47;98006.28;;;3.16;50.63
30873;BME280;17579;42.690;2.586;2023-01-30T03:19:10;98004.31;;;3.20;50.93
30873;BME280;17579;42.690;2.586;2023-01-30T03:21:43;98009.81;;;3.15;51.00
30873;BME280;17579;42.690;2.586;2023-01-30T03:24:10;98012.25;;;3.18;51.36
30873;BME280;17579;42.690;2.586;2023-01-30T03:26:41;98007.03;;;3.18;51.27
30873;BME280;17579;42.690;2.586;2023-01-30T03:29:07;98005.03;;;3.23;51.47
30873;BME280;17579;42.690;2.586;2023-01-30T03:31:33;98008.47;;;3.24;51.52
30873;BME280;17579;42.690;2.586;2023-01-30T03:33:58;98001.38;;;3.26;51.68
30873;BME280;17579;42.690;2.586;2023-01-30T03:36:24;97996.94;;;3.28;51.24
30873;BME280;17579;42.690;2.586;2023-01-30T03:38:50;97997.84;;;3.27;51.63
30873;BME280;17579;42.690;2.586;2023-01-30T03:41:16;97997.84;;;3.27;51.37
30873;BME280;17579;42.690;2.586;2023-01-30T03:43:42;97984.78;;;3.27;51.64
30873;BME280;17579;42.690;2.586;2023-01-30T03:46:08;97989.91;;;3.28;51.62
30873;BME280;17579;42.690;2.586;2023-01-30T03:48:33;97991.63;;;3.29;51.64
30873;BME280;17579;42.690;2.586;2023-01-30T03:50:59;97982.94;;;3.29;51.34
30873;BME280;17579;42.690;2.586;2023-01-30T03:53:24;97979.53;;;3.27;51.51
30873;BME280;17579;42.690;2.586;2023-01-30T03:55:50;97985.69;;;3.26;51.40
30873;BME280;17579;42.690;2.586;2023-01-30T03:58:15;97978.78;;;3.25;51.37
30873;BME280;17579;42.690;2.586;2023-01-30T04:00:41;97982.25;;;3.25;51.33
30873;BME280;17579;42.690;2.586;2023-01-30T04:03:07;97991.88;;;3.25;51.31
30873;BME280;17579;42.690;2.586;2023-01-30T04:05:32;97987.72;;;3.21;51.25
30873;BME280;17579;42.690;2.586;2023-01-30T04:07:58;97989.63;;;3.17;51.13
30873;BME280;17579;42.690;2.586;2023-01-30T04:10:25;97987.03;;;3.17;50.94
30873;BME280;17579;42.690;2.586;2023-01-30T04:12:51;97985.28;;;3.18;51.10
30873;BME280;17579;42.690;2.586;2023-01-30T04:15:16;97982.66;;;3.18;51.19
30873;BME280;17579;42.690;2.586;2023-01-30T04:17:42;97979.97;;;3.19;51.09
30873;BME280;17579;42.690;2.586;2023-01-30T04:20:09;97976.56;;;3.17;51.05
30873;BME280;17579;42.690;2.586;2023-01-30T04:22:34;97978.44;;;3.15;50.91
30873;BME280;17579;42.690;2.586;2023-01-30T04:25:00;97983.75;;;3.14;51.05
30873;BME280;17579;42.690;2.586;2023-01-30T04:27:26;97981.13;;;3.14;50.70
30873;BME280;17579;42.690;2.586;2023-01-30T04:29:51;97975.19;;;3.10;50.54
30873;BME280;17579;42.690;2.586;2023-01-30T04:32:17;97973.84;;;3.03;50.20
30873;BME280;17579;42.690;2.586;2023-01-30T04:34:42;97976.69;;;2.98;50.31
30873;BME280;17579;42.690;2.586;2023-01-30T04:37:10;97976.03;;;2.94;50.35
30873;BME280;17579;42.690;2.586;2023-01-30T04:39:36;97975.31;;;2.91;50.46
30873;BME280;17579;42.690;2.586;2023-01-30T04:42:02;97980.63;;;2.89;50.35
30873;BME280;17579;42.690;2.586;2023-01-30T04:44:28;97975.50;;;2.88;50.40
30873;BME280;17579;42.690;2.586;2023-01-30T04:46:53;97973.78;;;2.87;50.41
30873;BME280;17579;42.690;2.586;2023-01-30T04:49:19;97976.50;;;2.85;50.23
30873;BME280;17579;42.690;2.586;2023-01-30T04:51:44;97968.81;;;2.82;50.23
30873;BME280;17579;42.690;2.586;2023-01-30T04:54:10;97970.06;;;2.75;49.97
30873;BME280;17579;42.690;2.586;2023-01-30T04:56:36;97973.13;;;2.66;50.08
30873;BME280;17579;42.690;2.586;2023-01-30T04:59:01;97978.91;;;2.55;50.25
30873;BME280;17579;42.690;2.586;2023-01-30T05:01:32;97978.28;;;2.50;50.52
30873;BME280;17579;42.690;2.586;2023-01-30T05:03:58;97981.59;;;2.53;50.68
30873;BME280;17579;42.690;2.586;2023-01-30T05:06:24;97983.13;;;2.57;50.65
30873;BME280;17579;42.690;2.586;2023-01-30T05:08:51;97981.19;;;2.61;50.91
30873;BME280;17579;42.690;2.586;2023-01-30T05:11:18;97979.28;;;2.65;51.01
30873;BME280;17579;42.690;2.586;2023-01-30T05:13:44;97985.25;;;2.67;51.18
30873;BME280;17579;42.690;2.586;2023-01-30T05:16:11;97977.34;;;2.68;51.70
30873;BME280;17579;42.690;2.586;2023-01-30T05:18:36;97977.88;;;2.75;51.43
30873;BME280;17579;42.690;2.586;2023-01-30T05:21:12;97992.78;;;2.73;51.53
30873;BME280;17579;42.690;2.586;2023-01-30T05:23:38;97991.53;;;2.80;51.64
30873;BME280;17579;42.690;2.586;2023-01-30T05:26:03;97992.31;;;2.82;51.77
30873;BME280;17579;42.690;2.586;2023-01-30T05:28:29;98004.31;;;2.86;51.73
30873;BME280;17579;42.690;2.586;2023-01-30T05:31:00;97997.47;;;2.84;51.69
30873;BME280;17579;42.690;2.586;2023-01-30T05:33:26;97995.47;;;2.89;52.03
30873;BME280;17579;42.690;2.586;2023-01-30T05:35:52;97999.00;;;2.88;51.74
30873;BME280;17579;42.690;2.586;2023-01-30T05:38:17;98010.28;;;2.88;52.21
30873;BME280;17579;42.690;2.586;2023-01-30T05:40:43;98028.66;;;2.87;52.15
30873;BME280;17579;42.690;2.586;2023-01-30T05:43:08;98024.22;;;2.89;52.23
30873;BME280;17579;42.690;2.586;2023-01-30T05:45:35;98022.53;;;2.88;52.24
30873;BME280;17579;42.690;2.586;2023-01-30T05:48:01;98026.84;;;2.89;52.29
30873;BME280;17579;42.690;2.586;2023-01-30T05:50:27;98028.66;;;2.87;52.49
30873;BME280;17579;42.690;2.586;2023-01-30T05:52:53;98041.19;;;2.80;53.16
30873;BME280;17579;42.690;2.586;2023-01-30T05:55:19;98046.56;;;2.77;53.09
30873;BME280;17579;42.690;2.586;2023-01-30T05:57:44;98045.81;;;2.75;53.18
30873;BME280;17579;42.690;2.586;2023-01-30T06:00:10;98075.38;;;2.75;53.33
30873;BME280;17579;42.690;2.586;2023-01-30T06:02:37;98078.69;;;2.79;53.44
30873;BME280;17579;42.690;2.586;2023-01-30T06:05:02;98088.28;;;2.78;53.32
30873;BME280;17579;42.690;2.586;2023-01-30T06:07:28;98080.38;;;2.80;53.30
30873;BME280;17579;42.690;2.586;2023-01-30T06:09:53;98073.47;;;2.79;53.63
30873;BME280;17579;42.690;2.586;2023-01-30T06:12:19;98070.78;;;2.81;53.44
30873;BME280;17579;42.690;2.586;2023-01-30T06:14:45;98059.25;;;2.85;53.37
30873;BME280;17579;42.690;2.586;2023-01-30T06:17:10;98073.00;;;2.88;53.22
30873;BME280;17579;42.690;2.586;2023-01-30T06:19:36;98059.84;;;2.90;53.11
30873;BME280;17579;42.690;2.586;2023-01-30T06:22:01;98058.94;;;2.91;53.14
30873;BME280;17579;42.690;2.586;2023-01-30T06:24:27;98067.69;;;2.90;53.17
30873;BME280;17579;42.690;2.586;2023-01-30T06:26:53;98070.22;;;2.91;52.96
30873;BME280;17579;42.690;2.586;2023-01-30T06:29:18;98075.44;;;2.91;53.04
30873;BME280;17579;42.690;2.586;2023-01-30T06:31:44;98084.00;;;2.95;52.98
30873;BME280;17579;42.690;2.586;2023-01-30T06:34:10;98082.94;;;2.99;52.57
30873;BME280;17579;42.690;2.586;2023-01-30T06:36:36;98089.69;;;3.03;52.28
30873;BME280;17579;42.690;2.586;2023-01-30T06:39:02;98099.13;;;3.06;52.47
30873;BME280;17579;42.690;2.586;2023-01-30T06:41:28;98086.91;;;3.06;52.26
30873;BME280;17579;42.690;2.586;2023-01-30T06:43:53;98069.69;;;3.02;52.29
30873;BME280;17579;42.690;2.586;2023-01-30T06:46:20;98078.44;;;3.01;52.21
30873;BME280;17579;42.690;2.586;2023-01-30T06:48:46;98058.41;;;3.02;52.02
30873;BME280;17579;42.690;2.586;2023-01-30T06:51:12;98065.38;;;3.01;51.97
30873;BME280;17579;42.690;2.586;2023-01-30T06:53:37;98057.63;;;3.00;52.08
30873;BME280;17579;42.690;2.586;2023-01-30T06:56:03;98060.88;;;3.05;51.95
30873;BME280;17579;42.690;2.586;2023-01-30T06:58:29;98071.25;;;3.06;51.81
30873;BME280;17579;42.690;2.586;2023-01-30T07:00:55;98070.47;;;3.04;51.80
30873;BME280;17579;42.690;2.586;2023-01-30T07:03:21;98077.47;;;3.04;51.64
30873;BME280;17579;42.690;2.586;2023-01-30T07:05:47;98080.81;;;3.06;51.58
30873;BME280;17579;42.690;2.586;2023-01-30T07:08:13;98081.69;;;3.06;51.57
30873;BME280;17579;42.690;2.586;2023-01-30T07:10:40;98073.84;;;3.06;51.33
30873;BME280;17579;42.690;2.586;2023-01-30T07:13:06;98062.41;;;3.09;51.29
30873;BME280;17579;42.690;2.586;2023-01-30T07:15:32;98064.06;;;3.10;51.05
30873;BME280;17579;42.690;2.586;2023-01-30T07:17:58;98067.91;;;3.03;51.10
30873;BME280;17579;42.690;2.586;2023-01-30T07:20:23;98064.56;;;3.01;51.15
30873;BME280;17579;42.690;2.586;2023-01-30T07:22:50;98051.56;;;2.99;51.30
30873;BME280;17579;42.690;2.586;2023-01-30T07:25:17;98040.16;;;3.00;51.54
30873;BME280;17579;42.690;2.586;2023-01-30T07:27:48;98041.03;;;3.01;51.57
30873;BME280;17579;42.690;2.586;2023-01-30T07:30:14;98043.56;;;3.02;51.60
30873;BME280;17579;42.690;2.586;2023-01-30T07:32:39;98040.78;;;3.05;51.46
30873;BME280;17579;42.690;2.586;2023-01-30T07:35:05;98031.03;;;3.09;51.32
30873;BME280;17579;42.690;2.586;2023-01-30T07:37:31;98023.03;;;3.12;51.39
30873;BME280;17579;42.690;2.586;2023-01-30T07:39:56;98023.78;;;3.14;51.32
30873;BME280;17579;42.690;2.586;2023-01-30T07:42:22;98023.53;;;3.19;51.22
30873;BME280;17579;42.690;2.586;2023-01-30T07:44:48;98030.22;;;3.24;51.01
30873;BME280;17579;42.690;2.586;2023-01-30T07:47:13;98028.13;;;3.31;50.89
30873;BME280;17579;42.690;2.586;2023-01-30T07:49:39;98052.19;;;3.38;50.94
30873;BME280;17579;42.690;2.586;2023-01-30T07:52:05;98045.94;;;3.40;50.62
30873;BME280;17579;42.690;2.586;2023-01-30T07:54:30;98050.19;;;3.43;50.62
30873;BME280;17579;42.690;2.586;2023-01-30T07:56:56;98055.41;;;3.43;50.63
30873;BME280;17579;42.690;2.586;2023-01-30T07:59:21;98045.72;;;3.45;50.76
30873;BME280;17579;42.690;2.586;2023-01-30T08:01:47;98050.63;;;3.51;50.89
30873;BME280;17579;42.690;2.586;2023-01-30T08:04:12;98055.59;;;3.56;50.82
30873;BME280;17579;42.690;2.586;2023-01-30T08:06:38;98046.66;;;3.60;50.88
30873;BME280;17579;42.690;2.586;2023-01-30T08:09:05;98048.19;;;3.64;50.76
30873;BME280;17579;42.690;2.586;2023-01-30T08:11:30;98054.97;;;3.68;50.86
30873;BME280;17579;42.690;2.586;2023-01-30T08:13:56;98052.94;;;3.73;50.95
30873;BME280;17579;42.690;2.586;2023-01-30T08:16:22;98046.69;;;3.76;51.03
30873;BME280;17579;42.690;2.586;2023-01-30T08:18:47;98045.59;;;3.80;51.21
30873;BME280;17579;42.690;2.586;2023-01-30T08:21:13;98051.56;;;3.82;51.15
30873;BME280;17579;42.690;2.586;2023-01-30T08:23:38;98047.03;;;3.86;50.87
30873;BME280;17579;42.690;2.586;2023-01-30T08:26:04;98044.41;;;3.86;50.67
30873;BME280;17579;42.690;2.586;2023-01-30T08:28:30;98039.44;;;3.81;50.33
30873;BME280;17579;42.690;2.586;2023-01-30T08:30:56;98039.75;;;3.75;50.31
30873;BME280;17579;42.690;2.586;2023-01-30T08:33:23;98052.44;;;3.67;50.51
30873;BME280;17579;42.690;2.586;2023-01-30T08:35:49;98070.56;;;3.70;50.75
30873;BME280;17579;42.690;2.586;2023-01-30T08:38:16;98077.16;;;3.77;50.60
30873;BME280;17579;42.690;2.586;2023-01-30T08:40:41;98075.91;;;3.84;50.67
30873;BME280;17579;42.690;2.586;2023-01-30T08:43:07;98067.72;;;3.90;50.54
30873;BME280;17579;42.690;2.586;2023-01-30T08:45:33;98055.91;;;3.99;50.69
30873;BME280;17579;42.690;2.586;2023-01-30T08:48:03;98060.56;;;4.10;50.74
30873;BME280;17579;42.690;2.586;2023-01-30T08:50:29;98056.59;;;4.19;50.50
30873;BME280;17579;42.690;2.586;2023-01-30T08:52:55;98049.28;;;4.24;50.96
30873;BME280;17579;42.690;2.586;2023-01-30T08:55:21;98046.28;;;4.31;50.87
30873;BME280;17579;42.690;2.586;2023-01-30T08:57:47;98059.09;;;4.36;50.91
30873;BME280;17579;42.690;2.586;2023-01-30T09:00:14;98057.81;;;4.43;51.09
30873;BME280;17579;42.690;2.586;2023-01-30T09:02:39;98055.63;;;4.51;50.83
30873;BME280;17579;42.690;2.586;2023-01-30T09:05:05;98061.34;;;4.58;50.54
30873;BME280;17579;42.690;2.586;2023-01-30T09:07:31;98069.59;;;4.66;50.75
30873;BME280;17579;42.690;2.586;2023-01-30T09:09:57;98069.09;;;4.76;50.60
30873;BME280;17579;42.690;2.586;2023-01-30T09:12:23;98073.97;;;4.82;50.31
30873;BME280;17579;42.690;2.586;2023-01-30T09:14:49;98070.91;;;4.90;50.58
30873;BME280;17579;42.690;2.586;2023-01-30T09:17:17;98072.13;;;4.98;50.45
30873;BME280;17579;42.690;2.586;2023-01-30T09:19:42;98073.41;;;5.07;50.41
30873;BME280;17579;42.690;2.586;2023-01-30T09:22:08;98074.72;;;5.14;50.02
30873;BME280;17579;42.690;2.586;2023-01-30T09:24:34;98068.44;;;5.17;50.44
30873;BME280;17579;42.690;2.586;2023-01-30T09:26:59;98077.72;;;5.23;49.79
30873;BME280;17579;42.690;2.586;2023-01-30T09:29:25;98091.78;;;5.22;49.38
30873;BME280;17579;42.690;2.586;2023-01-30T09:31:51;98092.03;;;5.17;49.43
30873;BME280;17579;42.690;2.586;2023-01-30T09:34:17;98090.47;;;5.14;49.22
30873;BME280;17579;42.690;2.586;2023-01-30T09:36:43;98102.88;;;5.11;49.37
30873;BME280;17579;42.690;2.586;2023-01-30T09:39:08;98106.44;;;5.10;49.57
30873;BME280;17579;42.690;2.586;2023-01-30T09:42:12;98117.28;;;5.03;49.57
30873;BME280;17579;42.690;2.586;2023-01-30T09:45:01;98096.91;;;5.09;49.61
30873;BME280;17579;42.690;2.586;2023-01-30T09:47:51;98085.47;;;5.10;49.75
30873;BME280;17579;42.690;2.586;2023-01-30T09:53:24;98059.53;;;5.19;49.80
30873;BME280;17579;42.690;2.586;2023-01-30T09:55:56;98056.38;;;5.29;49.73
30873;BME280;17579;42.690;2.586;2023-01-30T09:58:24;98060.22;;;5.37;49.74
30873;BME280;17579;42.690;2.586;2023-01-30T10:00:53;98065.72;;;5.47;49.60
30873;BME280;17579;42.690;2.586;2023-01-30T10:03:32;98081.13;;;5.53;49.41
30873;BME280;17579;42.690;2.586;2023-01-30T10:06:05;98080.75;;;5.60;49.48
30873;BME280;17579;42.690;2.586;2023-01-30T10:08:49;98092.66;;;5.65;49.56
30873;BME280;17579;42.690;2.586;2023-01-30T10:20:21;98066.19;;;6.12;49.18
30873;BME280;17579;42.690;2.586;2023-01-30T10:25:55;98060.84;;;6.40;48.12
30873;BME280;17579;42.690;2.586;2023-01-30T10:28:39;98066.47;;;6.49;48.19
30873;BME280;17579;42.690;2.586;2023-01-30T10:31:11;98055.78;;;6.65;47.69
30873;BME280;17579;42.690;2.586;2023-01-30T10:33:46;98050.78;;;6.74;47.98
30873;BME280;17579;42.690;2.586;2023-01-30T10:36:21;98034.09;;;6.88;47.67
30873;BME280;17579;42.690;2.586;2023-01-30T10:38:51;98045.47;;;7.02;46.84
30873;BME280;17579;42.690;2.586;2023-01-30T10:41:27;98031.69;;;7.11;47.17
30873;BME280;17579;42.690;2.586;2023-01-30T10:44:04;98035.91;;;7.26;47.14
30873;BME280;17579;42.690;2.586;2023-01-30T10:46:53;98034.84;;;7.42;47.03
30873;BME280;17579;42.690;2.586;2023-01-30T10:52:35;98016.47;;;7.92;46.74
30873;BME280;17579;42.690;2.586;2023-01-30T10:55:15;97999.34;;;8.10;45.94
30873;BME280;17579;42.690;2.586;2023-01-30T11:00:48;98027.50;;;8.58;45.33
30873;BME280;17579;42.690;2.586;2023-01-30T11:03:31;98016.47;;;8.89;45.49
30873;BME280;17579;42.690;2.586;2023-01-30T11:06:09;98005.47;;;9.06;44.21
30873;BME280;17579;42.690;2.586;2023-01-30T11:08:36;98013.63;;;9.14;43.82
30873;BME280;17579;42.690;2.586;2023-01-30T11:14:09;97999.75;;;9.46;43.90
30873;BME280;17579;42.690;2.586;2023-01-30T11:16:48;98000.50;;;9.60;43.95
30873;BME280;17579;42.690;2.586;2023-01-30T11:19:17;97981.63;;;9.76;42.51
30873;BME280;17579;42.690;2.586;2023-01-30T11:21:48;97987.22;;;9.82;42.64
30873;BME280;17579;42.690;2.586;2023-01-30T11:24:19;97983.75;;;9.93;42.85
30873;BME280;17579;42.690;2.586;2023-01-30T11:26:45;97970.50;;;10.04;42.15
30873;BME280;17579;42.690;2.586;2023-01-30T11:29:31;97954.53;;;10.06;42.30
30873;BME280;17579;42.690;2.586;2023-01-30T11:32:10;97951.66;;;9.98;42.18
30873;BME280;17579;42.690;2.586;2023-01-30T11:34:42;97946.53;;;9.85;42.04
30873;BME280;17579;42.690;2.586;2023-01-30T11:37:23;97949.31;;;9.61;42.28
30873;BME280;17579;42.690;2.586;2023-01-30T11:39:52;97938.88;;;9.48;41.17
30873;BME280;17579;42.690;2.586;2023-01-30T11:42:19;97933.50;;;9.27;41.37
30873;BME280;17579;42.690;2.586;2023-01-30T11:44:54;97929.56;;;9.10;42.48
30873;BME280;17579;42.690;2.586;2023-01-30T11:47:26;97912.75;;;8.99;41.95
30873;BME280;17579;42.690;2.586;2023-01-30T11:49:54;97901.94;;;8.80;41.96
30873;BME280;17579;42.690;2.586;2023-01-30T11:52:29;97892.91;;;8.60;42.25
30873;BME280;17579;42.690;2.586;2023-01-30T11:55:05;97908.19;;;8.43;42.33
30873;BME280;17579;42.690;2.586;2023-01-30T11:57:40;97896.44;;;8.36;42.90
30873;BME280;17579;42.690;2.586;2023-01-30T12:00:15;97883.69;;;8.30;42.98
30873;BME280;17579;42.690;2.586;2023-01-30T12:02:44;97886.94;;;8.33;42.88
30873;BME280;17579;42.690;2.586;2023-01-30T12:05:30;97874.88;;;8.42;43.28
30873;BME280;17579;42.690;2.586;2023-01-30T12:08:23;97874.47;;;8.71;42.98
30873;BME280;17579;42.690;2.586;2023-01-30T12:10:53;97876.16;;;8.95;42.49
30873;BME280;17579;42.690;2.586;2023-01-30T12:13:26;97874.72;;;9.13;42.55
30873;BME280;17579;42.690;2.586;2023-01-30T12:16:11;97868.25;;;9.17;42.13
30873;BME280;17579;42.690;2.586;2023-01-30T12:21:43;97860.69;;;9.24;42.43
30873;BME280;17579;42.690;2.586;2023-01-30T12:24:21;97862.94;;;9.29;42.07
30873;BME280;17579;42.690;2.586;2023-01-30T12:29:53;97847.50;;;9.13;42.02
30873;BME280;17579;42.690;2.586;2023-01-30T12:32:25;97845.22;;;8.97;42.03
30873;BME280;17579;42.690;2.586;2023-01-30T12:34:51;97846.53;;;8.80;41.78
30873;BME280;17579;42.690;2.586;2023-01-30T12:37:36;97841.47;;;8.54;42.60
30873;BME280;17579;42.690;2.586;2023-01-30T12:40:38;97839.34;;;8.24;42.49
30873;BME280;17579;42.690;2.586;2023-01-30T12:43:25;97833.66;;;7.94;43.08
30873;BME280;17579;42.690;2.586;2023-01-30T12:48:58;97834.25;;;7.74;43.32
30873;BME280;17579;42.690;2.586;2023-01-30T12:51:51;97839.66;;;7.72;43.71
30873;BME280;17579;42.690;2.586;2023-01-30T12:54:41;97830.06;;;7.71;43.86
30873;BME280;17579;42.690;2.586;2023-01-30T12:57:28;97847.31;;;7.75;44.02
30873;BME280;17579;42.690;2.586;2023-01-30T13:03:18;97845.13;;;7.93;44.23
30873;BME280;17579;42.690;2.586;2023-01-30T13:05:59;97850.06;;;7.98;44.30
30873;BME280;17579;42.690;2.586;2023-01-30T13:20:04;97849.41;;;8.77;42.91
30873;BME280;17579;42.690;2.586;2023-01-30T13:25:47;97834.69;;;8.86;42.84
30873;BME280;17579;42.690;2.586;2023-01-30T13:28:25;97837.91;;;9.00;42.43
30873;BME280;17579;42.690;2.586;2023-01-30T13:30:52;97839.94;;;9.08;41.74
30873;BME280;17579;42.690;2.586;2023-01-30T13:33:37;97839.81;;;9.10;42.26
30873;BME280;17579;42.690;2.586;2023-01-30T13:39:10;97828.06;;;9.14;42.03
30873;BME280;17579;42.690;2.586;2023-01-30T13:41:41;97815.06;;;9.22;41.62
30873;BME280;17579;42.690;2.586;2023-01-30T13:44:16;97816.63;;;9.25;41.77
30873;BME280;17579;42.690;2.586;2023-01-30T13:46:45;97802.72;;;9.34;41.54
30873;BME280;17579;42.690;2.586;2023-01-30T13:49:24;97772.47;;;9.38;41.62
30873;BME280;17579;42.690;2.586;2023-01-30T13:52:13;97781.31;;;9.48;40.61
30873;BME280;17579;42.690;2.586;2023-01-30T13:54:56;97790.03;;;9.60;39.64
30873;BME280;17579;42.690;2.586;2023-01-30T13:57:41;97790.69;;;9.74;39.78
30873;BME280;17579;42.690;2.586;2023-01-30T14:00:28;97791.38;;;9.87;39.89
30873;BME280;17579;42.690;2.586;2023-01-30T14:03:14;97791.94;;;9.91;40.08
30873;BME280;17579;42.690;2.586;2023-01-30T14:06:10;97780.84;;;9.97;39.93
30873;BME280;17579;42.690;2.586;2023-01-30T14:08:49;97795.47;;;10.01;40.13
30873;BME280;17579;42.690;2.586;2023-01-30T14:11:34;97786.25;;;9.95;40.37
30873;BME280;17579;42.690;2.586;2023-01-30T14:14:18;97797.31;;;10.00;40.12
30873;BME280;17579;42.690;2.586;2023-01-30T14:16:54;97795.47;;;10.01;40.24
30873;BME280;17579;42.690;2.586;2023-01-30T14:19:39;97802.84;;;9.97;40.67
30873;BME280;17579;42.690;2.586;2023-01-30T14:27:44;97804.00;;;10.04;40.07
30873;BME280;17579;42.690;2.586;2023-01-30T14:30:46;97806.19;;;9.99;40.76
30873;BME280;17579;42.690;2.586;2023-01-30T14:33:35;97797.13;;;10.13;40.58
30873;BME280;17579;42.690;2.586;2023-01-30T14:36:32;97798.81;;;10.35;40.14
30873;BME280;17579;42.690;2.586;2023-01-30T14:42:17;97792.66;;;10.56;39.48
30873;BME280;17579;42.690;2.586;2023-01-30T14:44:56;97782.81;;;10.68;39.46
30873;BME280;17579;42.690;2.586;2023-01-30T14:47:22;97780.13;;;10.89;38.67
30873;BME280;17579;42.690;2.586;2023-01-30T14:49:48;97777.34;;;11.00;38.53
30873;BME280;17579;42.690;2.586;2023-01-30T14:52:36;97778.75;;;11.04;38.76
30873;BME280;17579;42.690;2.586;2023-01-30T14:55:04;97775.47;;;11.22;37.93